sensor_id;sensor_type;location;lat;lon;timestamp;pressure;altitude;pressure_sealevel;temperature;humidity
39301;BME280;25019;42.626;23.380;2023-07-08T00:00:28;94719.84;;;18.29;100.00
39301;BME280;25019;42.626;23.380;2023-07-08T00:02:54;94712.81;;;18.33;100.00
39301;BME280;25019;42.626;23.380;2023-07-08T00:05:21;94708.31;;;18.28;100.00
39301;BME280;25019;42.626;23.380;2023-07-08T00:07:47;94708.09;;;18.24;100.00
39301;BME280;25019;42.626;23.380;2023-07-08T00:10:19;94695.88;;;18.13;100.00
39301;BME280;25019;42.626;23.380;2023-07-08T00:12:47;94701.25;;;18.13;100.00
39301;BME280;25019;42.626;23.380;2023-07-08T00:15:13;94619.81;;;17.69;100.00
39301;BME280;25019;42.626;23.380;2023-07-08T00:17:39;94699.84;;;18.16;100.00
39301;BME280;25019;42.626;23.380;2023-07-08T00:20:34;94629.47;;;17.70;100.00
39301;BME280;25019;42.626;23.380;2023-07-08T00:22:58;94686.50;;;18.10;100.00
39301;BME280;25019;42.626;23.380;2023-07-08T00:25:26;94680.31;;;18.10;100.00
39301;BME280;25019;42.626;23.380;2023-07-08T00:27:51;94691.28;;;18.14;100.00
39301;BME280;25019;42.626;23.380;2023-07-08T00:30:28;94695.34;;;18.11;100.00
39301;BME280;25019;42.626;23.380;2023-07-08T00:32:55;94695.66;;;18.09;100.00
39301;BME280;25019;42.626;23.380;2023-07-08T00:35:41;94691.63;;;18.07;100.00
39301;BME280;25019;42.626;23.380;2023-07-08T00:38:14;94690.56;;;18.08;100.00
39301;BME280;25019;42.626;23.380;2023-07-08T00:43:38;94688.94;;;18.07;100.00
39301;BME280;25019;42.626;23.380;2023-07-08T00:46:33;94687.97;;;17.97;100.00
39301;BME280;25019;42.626;23.380;2023-07-08T00:51:25;94636.38;;;17.52;100.00
39301;BME280;25019;42.626;23.380;2023-07-08T00:53:51;94690.25;;;17.85;100.00
39301;BME280;25019;42.626;23.380;2023-07-08T00:56:37;94617.22;;;17.40;100.00
39301;BME280;25019;42.626;23.380;2023-07-08T00:59:28;94668.78;;;17.85;100.00
39301;BME280;25019;42.626;23.380;2023-07-08T01:01:56;94672.59;;;17.79;100.00
39301;BME280;25019;42.626;23.380;2023-07-08T01:04:32;94617.22;;;17.40;100.00
39301;BME280;25019;42.626;23.380;2023-07-08T01:07:01;94665.16;;;17.71;100.00
39301;BME280;25019;42.626;23.380;2023-07-08T01:09:31;94659.88;;;17.65;100.00
39301;BME280;25019;42.626;23.380;2023-07-08T01:12:02;94661.47;;;17.66;100.00
39301;BME280;25019;42.626;23.380;2023-07-08T01:14:31;94650.16;;;17.70;100.00
39301;BME280;25019;42.626;23.380;2023-07-08T01:16:59;94653.13;;;17.68;100.00
39301;BME280;25019;42.626;23.380;2023-07-08T01:19:26;94576.94;;;17.15;100.00
39301;BME280;25019;42.626;23.380;2023-07-08T01:22:06;94647.03;;;17.62;100.00
39301;BME280;25019;42.626;23.380;2023-07-08T01:24:35;94572.97;;;17.13;100.00
39301;BME280;25019;42.626;23.380;2023-07-08T01:27:02;94653.19;;;17.63;100.00
39301;BME280;25019;42.626;23.380;2023-07-08T01:29:30;94580.16;;;17.17;100.00
39301;BME280;25019;42.626;23.380;2023-07-08T01:31:59;94608.88;;;17.41;100.00
39301;BME280;25019;42.626;23.380;2023-07-08T01:34:34;94644.69;;;17.56;100.00
39301;BME280;25019;42.626;23.380;2023-07-08T01:37:03;94645.41;;;17.61;100.00
39301;BME280;25019;42.626;23.380;2023-07-08T01:39:31;94561.41;;;17.12;100.00
39301;BME280;25019;42.626;23.380;2023-07-08T01:41:57;94643.53;;;17.62;100.00
39301;BME280;25019;42.626;23.380;2023-07-08T01:44:35;94642.75;;;17.61;100.00
39301;BME280;25019;42.626;23.380;2023-07-08T01:47:15;94630.22;;;17.51;100.00
39301;BME280;25019;42.626;23.380;2023-07-08T01:49:43;94586.75;;;17.25;100.00
39301;BME280;25019;42.626;23.380;2023-07-08T01:52:11;94625.13;;;17.50;100.00
39301;BME280;25019;42.626;23.380;2023-07-08T01:54:37;94649.19;;;17.60;100.00
39301;BME280;25019;42.626;23.380;2023-07-08T01:57:04;94639.75;;;17.63;100.00
39301;BME280;25019;42.626;23.380;2023-07-08T01:59:30;94512.38;;;16.77;100.00
39301;BME280;25019;42.626;23.380;2023-07-08T02:01:56;94640.31;;;17.60;100.00
39301;BME280;25019;42.626;23.380;2023-07-08T02:04:22;94647.59;;;17.59;100.00
39301;BME280;25019;42.626;23.380;2023-07-08T02:06:57;94633.13;;;17.55;100.00
39301;BME280;25019;42.626;23.380;2023-07-08T02:09:23;94642.28;;;17.54;100.00
39301;BME280;25019;42.626;23.380;2023-07-08T02:11:51;94650.84;;;17.56;100.00
39301;BME280;25019;42.626;23.380;2023-07-08T02:14:16;94644.19;;;17.54;100.00
39301;BME280;25019;42.626;23.380;2023-07-08T02:16:42;94609.38;;;17.19;100.00
39301;BME280;25019;42.626;23.380;2023-07-08T02:19:09;94652.81;;;17.50;100.00
39301;BME280;25019;42.626;23.380;2023-07-08T02:21:35;94657.13;;;17.46;100.00
39301;BME280;25019;42.626;23.380;2023-07-08T02:24:01;94582.78;;;16.93;100.00
39301;BME280;25019;42.626;23.380;2023-07-08T02:26:27;94604.22;;;16.98;100.00
39301;BME280;25019;42.626;23.380;2023-07-08T02:28:52;94662.44;;;17.27;100.00
39301;BME280;25019;42.626;23.380;2023-07-08T02:31:18;94668.53;;;17.33;100.00
39301;BME280;25019;42.626;23.380;2023-07-08T02:33:43;94545.06;;;16.55;100.00
39301;BME280;25019;42.626;23.380;2023-07-08T02:36:11;94583.53;;;16.69;100.00
39301;BME280;25019;42.626;23.380;2023-07-08T02:38:36;94649.75;;;17.09;100.00
39301;BME280;25019;42.626;23.380;2023-07-08T02:41:02;94682.53;;;17.30;100.00
39301;BME280;25019;42.626;23.380;2023-07-08T02:43:28;94690.81;;;17.33;100.00
39301;BME280;25019;42.626;23.380;2023-07-08T02:45:53;94617.97;;;16.86;100.00
39301;BME280;25019;42.626;23.380;2023-07-08T02:48:19;94647.38;;;17.02;100.00
39301;BME280;25019;42.626;23.380;2023-07-08T02:50:45;94692.13;;;17.36;100.00
39301;BME280;25019;42.626;23.380;2023-07-08T02:53:12;94623.00;;;16.93;100.00
39301;BME280;25019;42.626;23.380;2023-07-08T02:55:39;94634.25;;;17.00;100.00
39301;BME280;25019;42.626;23.380;2023-07-08T02:58:04;94691.88;;;17.37;100.00
39301;BME280;25019;42.626;23.380;2023-07-08T03:00:30;94696.38;;;17.42;100.00
39301;BME280;25019;42.626;23.380;2023-07-08T03:02:56;94693.69;;;17.42;100.00
39301;BME280;25019;42.626;23.380;2023-07-08T03:05:21;94693.69;;;17.42;100.00
39301;BME280;25019;42.626;23.380;2023-07-08T03:07:47;94699.34;;;17.41;100.00
39301;BME280;25019;42.626;23.380;2023-07-08T03:10:12;94681.25;;;17.22;100.00
39301;BME280;25019;42.626;23.380;2023-07-08T03:12:38;94687.97;;;17.25;100.00
39301;BME280;25019;42.626;23.380;2023-07-08T03:15:05;94690.88;;;17.28;100.00
39301;BME280;25019;42.626;23.380;2023-07-08T03:17:30;94701.25;;;17.35;100.00
39301;BME280;25019;42.626;23.380;2023-07-08T03:19:56;94692.47;;;17.29;100.00
39301;BME280;25019;42.626;23.380;2023-07-08T03:22:22;94644.88;;;17.11;100.00
39301;BME280;25019;42.626;23.380;2023-07-08T03:24:48;94694.25;;;17.39;100.00
39301;BME280;25019;42.626;23.380;2023-07-08T03:27:17;94688.84;;;17.44;100.00
39301;BME280;25019;42.626;23.380;2023-07-08T03:29:44;94610.97;;;16.96;100.00
39301;BME280;25019;42.626;23.380;2023-07-08T03:32:11;94679.69;;;17.45;100.00
39301;BME280;25019;42.626;23.380;2023-07-08T03:34:37;94635.69;;;17.17;100.00
39301;BME280;25019;42.626;23.380;2023-07-08T03:37:03;94641.47;;;17.29;100.00
39301;BME280;25019;42.626;23.380;2023-07-08T03:39:29;94677.34;;;17.63;100.00
39301;BME280;25019;42.626;23.380;2023-07-08T03:41:57;94679.13;;;17.73;100.00
39301;BME280;25019;42.626;23.380;2023-07-08T03:44:22;94677.28;;;17.92;100.00
39301;BME280;25019;42.626;23.380;2023-07-08T03:46:49;94642.31;;;17.97;100.00
39301;BME280;25019;42.626;23.380;2023-07-08T03:49:18;94654.09;;;18.40;100.00
39301;BME280;25019;42.626;23.380;2023-07-08T03:51:50;94667.88;;;18.71;100.00
39301;BME280;25019;42.626;23.380;2023-07-08T03:54:17;94653.56;;;18.95;100.00
39301;BME280;25019;42.626;23.380;2023-07-08T03:56:44;94623.06;;;19.00;99.39
39301;BME280;25019;42.626;23.380;2023-07-08T03:59:10;94608.03;;;19.27;97.65
39301;BME280;25019;42.626;23.380;2023-07-08T04:01:36;94585.09;;;19.29;94.47
39301;BME280;25019;42.626;23.380;2023-07-08T04:04:10;94666.91;;;20.03;93.45
39301;BME280;25019;42.626;23.380;2023-07-08T04:06:36;94659.97;;;20.25;91.87
39301;BME280;25019;42.626;23.380;2023-07-08T04:09:02;94630.44;;;20.20;90.76
39301;BME280;25019;42.626;23.380;2023-07-08T04:11:28;94669.25;;;20.70;88.22
39301;BME280;25019;42.626;23.380;2023-07-08T04:13:54;94640.59;;;20.60;86.85
39301;BME280;25019;42.626;23.380;2023-07-08T04:16:25;94688.84;;;20.98;87.32
39301;BME280;25019;42.626;23.380;2023-07-08T04:18:54;94687.94;;;21.03;85.02
39301;BME280;25019;42.626;23.380;2023-07-08T04:21:21;94684.97;;;21.13;85.18
39301;BME280;25019;42.626;23.380;2023-07-08T04:23:48;94688.44;;;21.36;83.46
39301;BME280;25019;42.626;23.380;2023-07-08T04:26:13;94673.38;;;21.44;82.62
39301;BME280;25019;42.626;23.380;2023-07-08T04:28:42;94616.88;;;21.25;82.68
39301;BME280;25019;42.626;23.380;2023-07-08T04:31:08;94631.31;;;21.61;81.97
39301;BME280;25019;42.626;23.380;2023-07-08T04:33:33;94691.72;;;22.63;79.46
39301;BME280;25019;42.626;23.380;2023-07-08T04:35:59;94694.25;;;23.12;76.09
39301;BME280;25019;42.626;23.380;2023-07-08T04:38:26;94631.47;;;23.10;73.41
39301;BME280;25019;42.626;23.380;2023-07-08T04:40:53;94704.06;;;23.52;71.48
39301;BME280;25019;42.626;23.380;2023-07-08T04:43:20;94707.75;;;23.86;71.93
39301;BME280;25019;42.626;23.380;2023-07-08T04:45:53;94702.03;;;24.48;68.08
39301;BME280;25019;42.626;23.380;2023-07-08T04:48:20;94678.06;;;23.99;68.71
39301;BME280;25019;42.626;23.380;2023-07-08T04:50:48;94691.72;;;22.98;71.71
39301;BME280;25019;42.626;23.380;2023-07-08T04:53:14;94678.81;;;22.51;74.68
39301;BME280;25019;42.626;23.380;2023-07-08T04:56:00;94700.31;;;22.65;74.35
39301;BME280;25019;42.626;23.380;2023-07-08T04:58:26;94703.16;;;22.86;73.43
39301;BME280;25019;42.626;23.380;2023-07-08T05:00:52;94707.63;;;22.56;73.99
39301;BME280;25019;42.626;23.380;2023-07-08T05:03:18;94657.31;;;22.55;74.15
39301;BME280;25019;42.626;23.380;2023-07-08T05:05:43;94616.59;;;22.51;71.92
39301;BME280;25019;42.626;23.380;2023-07-08T05:08:09;94703.28;;;23.16;72.05
39301;BME280;25019;42.626;23.380;2023-07-08T05:10:35;94706.34;;;23.06;71.96
39301;BME280;25019;42.626;23.380;2023-07-08T05:13:00;94611.31;;;22.46;72.32
39301;BME280;25019;42.626;23.380;2023-07-08T05:15:26;94662.06;;;22.40;73.08
39301;BME280;25019;42.626;23.380;2023-07-08T05:17:52;94704.13;;;22.55;74.34
39301;BME280;25019;42.626;23.380;2023-07-08T05:20:17;94707.16;;;22.80;73.56
39301;BME280;25019;42.626;23.380;2023-07-08T05:22:48;94648.34;;;22.19;73.28
39301;BME280;25019;42.626;23.380;2023-07-08T05:25:14;94631.97;;;22.33;72.57
39301;BME280;25019;42.626;23.380;2023-07-08T05:27:40;94716.22;;;23.37;71.35
39301;BME280;25019;42.626;23.380;2023-07-08T05:30:06;94717.66;;;23.91;68.96
39301;BME280;25019;42.626;23.380;2023-07-08T05:32:33;94707.47;;;24.48;65.73
39301;BME280;25019;42.626;23.380;2023-07-08T05:34:58;94724.25;;;24.71;64.18
39301;BME280;25019;42.626;23.380;2023-07-08T05:37:24;94702.03;;;24.69;63.80
39301;BME280;25019;42.626;23.380;2023-07-08T05:39:52;94651.19;;;24.36;63.84
39301;BME280;25019;42.626;23.380;2023-07-08T05:42:20;94714.09;;;25.23;63.34
39301;BME280;25019;42.626;23.380;2023-07-08T05:44:46;94724.63;;;25.46;61.30
39301;BME280;25019;42.626;23.380;2023-07-08T05:47:12;94651.41;;;24.73;60.84
39301;BME280;25019;42.626;23.380;2023-07-08T05:49:38;94724.25;;;24.71;63.58
39301;BME280;25019;42.626;23.380;2023-07-08T05:52:04;94667.34;;;24.53;62.18
39301;BME280;25019;42.626;23.380;2023-07-08T05:54:39;94727.78;;;24.42;63.03
39301;BME280;25019;42.626;23.380;2023-07-08T05:57:09;94717.28;;;24.31;63.22
39301;BME280;25019;42.626;23.380;2023-07-08T05:59:36;94744.06;;;24.42;63.69
39301;BME280;25019;42.626;23.380;2023-07-08T06:02:04;94743.13;;;24.37;63.25
39301;BME280;25019;42.626;23.380;2023-07-08T06:04:32;94740.09;;;24.39;62.99
39301;BME280;25019;42.626;23.380;2023-07-08T06:06:58;94697.13;;;23.72;64.18
39301;BME280;25019;42.626;23.380;2023-07-08T06:09:24;94726.03;;;23.59;66.00
39301;BME280;25019;42.626;23.380;2023-07-08T06:11:49;94726.22;;;23.45;66.49
39301;BME280;25019;42.626;23.380;2023-07-08T06:14:15;94749.50;;;23.46;67.65
39301;BME280;25019;42.626;23.380;2023-07-08T06:16:41;94715.41;;;23.19;67.64
39301;BME280;25019;42.626;23.380;2023-07-08T06:19:07;94746.19;;;22.97;69.12
39301;BME280;25019;42.626;23.380;2023-07-08T06:21:32;94744.28;;;23.24;68.16
39301;BME280;25019;42.626;23.380;2023-07-08T06:23:58;94754.78;;;23.08;69.29
39301;BME280;25019;42.626;23.380;2023-07-08T06:26:24;94687.97;;;22.24;70.32
39301;BME280;25019;42.626;23.380;2023-07-08T06:28:50;94751.59;;;22.12;72.38
39301;BME280;25019;42.626;23.380;2023-07-08T06:31:15;94757.28;;;22.02;73.10
39301;BME280;25019;42.626;23.380;2023-07-08T06:33:42;94684.19;;;21.44;73.72
39301;BME280;25019;42.626;23.380;2023-07-08T06:36:08;94676.50;;;21.06;76.50
39301;BME280;25019;42.626;23.380;2023-07-08T06:38:34;94747.72;;;21.64;77.46
39301;BME280;25019;42.626;23.380;2023-07-08T06:40:59;94738.69;;;22.09;75.39
39301;BME280;25019;42.626;23.380;2023-07-08T06:43:25;94689.09;;;22.23;72.99
39301;BME280;25019;42.626;23.380;2023-07-08T06:45:59;94739.88;;;22.35;72.95
39301;BME280;25019;42.626;23.380;2023-07-08T06:48:24;94737.34;;;22.38;73.42
39301;BME280;25019;42.626;23.380;2023-07-08T06:50:50;94692.66;;;22.58;72.05
39301;BME280;25019;42.626;23.380;2023-07-08T06:53:16;94737.75;;;23.25;70.57
39301;BME280;25019;42.626;23.380;2023-07-08T06:55:44;94736.13;;;23.32;69.46
39301;BME280;25019;42.626;23.380;2023-07-08T06:58:10;94734.00;;;23.64;68.42
39301;BME280;25019;42.626;23.380;2023-07-08T07:00:35;94740.59;;;23.28;67.96
39301;BME280;25019;42.626;23.380;2023-07-08T07:03:01;94743.94;;;23.08;67.76
39301;BME280;25019;42.626;23.380;2023-07-08T07:05:26;94742.19;;;23.03;68.28
39301;BME280;25019;42.626;23.380;2023-07-08T07:07:52;94738.06;;;22.70;68.49
39301;BME280;25019;42.626;23.380;2023-07-08T07:10:19;94734.88;;;22.10;69.08
39301;BME280;25019;42.626;23.380;2023-07-08T07:12:45;94747.25;;;22.03;70.84
39301;BME280;25019;42.626;23.380;2023-07-08T07:15:10;94741.53;;;22.04;70.96
39301;BME280;25019;42.626;23.380;2023-07-08T07:17:36;94676.97;;;21.62;70.37
39301;BME280;25019;42.626;23.380;2023-07-08T07:20:02;94751.00;;;22.24;70.35
39301;BME280;25019;42.626;23.380;2023-07-08T07:22:28;94754.50;;;22.34;69.70
39301;BME280;25019;42.626;23.380;2023-07-08T07:24:54;94759.69;;;22.62;69.20
39301;BME280;25019;42.626;23.380;2023-07-08T07:27:20;94758.50;;;22.36;69.15
39301;BME280;25019;42.626;23.380;2023-07-08T07:29:50;94707.78;;;21.93;68.62
39301;BME280;25019;42.626;23.380;2023-07-08T07:32:17;94744.66;;;21.89;70.57
39301;BME280;25019;42.626;23.380;2023-07-08T07:34:46;94781.25;;;22.35;69.87
39301;BME280;25019;42.626;23.380;2023-07-08T07:37:13;94774.50;;;22.15;68.80
39301;BME280;25019;42.626;23.380;2023-07-08T07:39:40;94782.09;;;22.44;68.29
39301;BME280;25019;42.626;23.380;2023-07-08T07:42:06;94765.41;;;22.60;68.13
39301;BME280;25019;42.626;23.380;2023-07-08T07:44:32;94727.09;;;22.18;68.52
39301;BME280;25019;42.626;23.380;2023-07-08T07:46:58;94783.13;;;22.66;69.40
39301;BME280;25019;42.626;23.380;2023-07-08T07:49:24;94778.50;;;22.75;67.95
39301;BME280;25019;42.626;23.380;2023-07-08T07:51:49;94777.72;;;22.75;67.91
39301;BME280;25019;42.626;23.380;2023-07-08T07:54:15;94719.38;;;22.42;68.00
39301;BME280;25019;42.626;23.380;2023-07-08T07:56:41;94722.88;;;22.43;68.47
39301;BME280;25019;42.626;23.380;2023-07-08T07:59:07;94775.47;;;22.68;67.97
39301;BME280;25019;42.626;23.380;2023-07-08T08:01:32;94775.91;;;22.44;68.87
39301;BME280;25019;42.626;23.380;2023-07-08T08:03:58;94777.41;;;22.27;70.21
39301;BME280;25019;42.626;23.380;2023-07-08T08:06:24;94778.16;;;22.10;71.15
39301;BME280;25019;42.626;23.380;2023-07-08T08:08:50;94776.97;;;21.94;71.70
39301;BME280;25019;42.626;23.380;2023-07-08T08:11:16;94775.25;;;21.66;72.32
39301;BME280;25019;42.626;23.380;2023-07-08T08:13:42;94747.75;;;21.19;72.54
39301;BME280;25019;42.626;23.380;2023-07-08T08:16:08;94757.44;;;21.20;73.26
39301;BME280;25019;42.626;23.380;2023-07-08T08:18:33;94750.75;;;21.17;73.28
39301;BME280;25019;42.626;23.380;2023-07-08T08:21:00;94780.22;;;21.50;73.65
39301;BME280;25019;42.626;23.380;2023-07-08T08:23:25;94789.78;;;21.57;73.13
39301;BME280;25019;42.626;23.380;2023-07-08T08:25:51;94769.69;;;21.49;73.60
39301;BME280;25019;42.626;23.380;2023-07-08T08:28:17;94774.81;;;21.50;74.02
39301;BME280;25019;42.626;23.380;2023-07-08T08:30:47;94776.91;;;21.53;72.38
39301;BME280;25019;42.626;23.380;2023-07-08T08:33:13;94769.66;;;21.63;73.52
39301;BME280;25019;42.626;23.380;2023-07-08T08:35:38;94779.34;;;21.64;74.07
39301;BME280;25019;42.626;23.380;2023-07-08T08:38:04;94772.47;;;21.58;72.07
39301;BME280;25019;42.626;23.380;2023-07-08T08:40:31;94762.56;;;21.53;71.27
39301;BME280;25019;42.626;23.380;2023-07-08T08:43:00;94772.47;;;21.58;71.52
39301;BME280;25019;42.626;23.380;2023-07-08T08:45:29;94769.28;;;21.55;72.25
39301;BME280;25019;42.626;23.380;2023-07-08T08:48:03;94706.81;;;21.25;73.10
39301;BME280;25019;42.626;23.380;2023-07-08T08:50:36;94771.03;;;21.60;72.15
39301;BME280;25019;42.626;23.380;2023-07-08T08:53:08;94770.47;;;21.63;71.78
39301;BME280;25019;42.626;23.380;2023-07-08T08:55:36;94751.84;;;21.39;71.89
39301;BME280;25019;42.626;23.380;2023-07-08T09:00:55;94771.25;;;21.41;73.06
39301;BME280;25019;42.626;23.380;2023-07-08T09:06:25;94766.75;;;21.91;71.79
39301;BME280;25019;42.626;23.380;2023-07-08T09:08:52;94758.25;;;22.06;72.08
39301;BME280;25019;42.626;23.380;2023-07-08T09:13:57;94775.00;;;22.17;71.63
39301;BME280;25019;42.626;23.380;2023-07-08T09:16:38;94771.75;;;21.97;70.52
39301;BME280;25019;42.626;23.380;2023-07-08T09:19:21;94689.09;;;21.42;70.58
39301;BME280;25019;42.626;23.380;2023-07-08T09:22:04;94789.38;;;21.95;70.26
39301;BME280;25019;42.626;23.380;2023-07-08T09:27:01;94762.22;;;22.09;70.65
39301;BME280;25019;42.626;23.380;2023-07-08T09:29:29;94772.75;;;22.10;71.13
39301;BME280;25019;42.626;23.380;2023-07-08T09:31:55;94708.50;;;21.76;69.45
39301;BME280;25019;42.626;23.380;2023-07-08T09:34:23;94753.63;;;22.07;69.98
39301;BME280;25019;42.626;23.380;2023-07-08T09:36:51;94748.38;;;22.02;70.25
39301;BME280;25019;42.626;23.380;2023-07-08T09:39:19;94763.69;;;22.15;70.86
39301;BME280;25019;42.626;23.380;2023-07-08T09:41:49;94764.53;;;22.33;69.42
39301;BME280;25019;42.626;23.380;2023-07-08T09:44:22;94763.72;;;22.24;68.99
39301;BME280;25019;42.626;23.380;2023-07-08T09:46:58;94691.63;;;21.70;67.80
39301;BME280;25019;42.626;23.380;2023-07-08T09:49:27;94738.84;;;22.13;68.24
39301;BME280;25019;42.626;23.380;2023-07-08T09:51:54;94757.88;;;22.39;68.12
39301;BME280;25019;42.626;23.380;2023-07-08T09:54:22;94755.56;;;22.64;67.71
39301;BME280;25019;42.626;23.380;2023-07-08T09:56:58;94752.09;;;22.81;66.98
39301;BME280;25019;42.626;23.380;2023-07-08T09:59:31;94754.00;;;22.98;66.32
39301;BME280;25019;42.626;23.380;2023-07-08T10:02:31;94708.53;;;22.42;65.23
39301;BME280;25019;42.626;23.380;2023-07-08T10:05:00;94743.44;;;22.62;65.78
39301;BME280;25019;42.626;23.380;2023-07-08T10:07:30;94753.50;;;22.70;65.76
39301;BME280;25019;42.626;23.380;2023-07-08T10:10:00;94749.34;;;22.72;64.59
39301;BME280;25019;42.626;23.380;2023-07-08T10:12:28;94742.50;;;22.84;65.02
39301;BME280;25019;42.626;23.380;2023-07-08T10:15:01;94691.38;;;22.65;66.08
39301;BME280;25019;42.626;23.380;2023-07-08T10:17:31;94741.88;;;23.04;63.57
39301;BME280;25019;42.626;23.380;2023-07-08T10:19:59;94730.25;;;22.86;63.28
39301;BME280;25019;42.626;23.380;2023-07-08T10:28:22;94666.53;;;22.89;64.12
39301;BME280;25019;42.626;23.380;2023-07-08T10:33:47;94722.41;;;23.46;63.22
39301;BME280;25019;42.626;23.380;2023-07-08T10:39:02;94719.66;;;23.64;62.46
39301;BME280;25019;42.626;23.380;2023-07-08T10:44:14;94714.28;;;23.94;59.66
39301;BME280;25019;42.626;23.380;2023-07-08T10:47:22;94611.03;;;23.30;60.23
39301;BME280;25019;42.626;23.380;2023-07-08T11:06:17;94696.72;;;24.00;59.21
39301;BME280;25019;42.626;23.380;2023-07-08T11:08:59;94691.91;;;24.06;58.07
39301;BME280;25019;42.626;23.380;2023-07-08T11:14:10;94697.59;;;24.43;57.53
39301;BME280;25019;42.626;23.380;2023-07-08T11:16:41;94692.31;;;24.47;56.65
39301;BME280;25019;42.626;23.380;2023-07-08T11:19:18;94698.13;;;24.58;55.64
39301;BME280;25019;42.626;23.380;2023-07-08T11:21:53;94667.88;;;24.47;56.78
39301;BME280;25019;42.626;23.380;2023-07-08T11:29:51;94669.16;;;24.19;57.18
39301;BME280;25019;42.626;23.380;2023-07-08T11:32:22;94664.38;;;24.16;57.18
39301;BME280;25019;42.626;23.380;2023-07-08T11:34:50;94669.31;;;24.23;57.48
39301;BME280;25019;42.626;23.380;2023-07-08T11:37:18;94664.81;;;24.48;56.07
39301;BME280;25019;42.626;23.380;2023-07-08T11:39:46;94656.84;;;24.73;55.78
39301;BME280;25019;42.626;23.380;2023-07-08T11:42:42;94663.53;;;24.76;55.58
39301;BME280;25019;42.626;23.380;2023-07-08T11:48:06;94609.53;;;24.74;54.96
39301;BME280;25019;42.626;23.380;2023-07-08T11:50:38;94572.81;;;24.68;54.56
39301;BME280;25019;42.626;23.380;2023-07-08T11:53:14;94665.25;;;25.48;52.69
39301;BME280;25019;42.626;23.380;2023-07-08T11:58:29;94648.69;;;25.40;53.36
39301;BME280;25019;42.626;23.380;2023-07-08T12:01:40;94672.16;;;25.45;51.52
39301;BME280;25019;42.626;23.380;2023-07-08T12:04:30;94664.69;;;25.67;51.27
39301;BME280;25019;42.626;23.380;2023-07-08T12:09:37;94657.25;;;25.76;51.35
39301;BME280;25019;42.626;23.380;2023-07-08T12:12:16;94668.25;;;26.17;50.89
39301;BME280;25019;42.626;23.380;2023-07-08T12:14:44;94667.13;;;26.06;50.57
39301;BME280;25019;42.626;23.380;2023-07-08T12:17:12;94653.50;;;26.06;50.20
39301;BME280;25019;42.626;23.380;2023-07-08T12:19:40;94663.59;;;25.93;50.22
39301;BME280;25019;42.626;23.380;2023-07-08T12:22:08;94615.72;;;25.42;51.22
39301;BME280;25019;42.626;23.380;2023-07-08T12:24:35;94662.38;;;25.32;50.53
39301;BME280;25019;42.626;23.380;2023-07-08T12:27:02;94656.03;;;25.40;51.18
39301;BME280;25019;42.626;23.380;2023-07-08T12:29:28;94646.38;;;25.64;50.82
39301;BME280;25019;42.626;23.380;2023-07-08T12:31:54;94645.13;;;25.73;50.62
39301;BME280;25019;42.626;23.380;2023-07-08T12:34:21;94594.84;;;25.21;50.42
39301;BME280;25019;42.626;23.380;2023-07-08T12:36:49;94636.03;;;25.45;51.79
39301;BME280;25019;42.626;23.380;2023-07-08T12:39:16;94586.91;;;25.04;50.86
39301;BME280;25019;42.626;23.380;2023-07-08T12:41:44;94648.50;;;25.46;51.17
39301;BME280;25019;42.626;23.380;2023-07-08T12:44:25;94540.25;;;24.34;51.63
39301;BME280;25019;42.626;23.380;2023-07-08T12:46:54;94585.38;;;24.60;51.06
39301;BME280;25019;42.626;23.380;2023-07-08T12:49:21;94627.31;;;25.05;50.72
39301;BME280;25019;42.626;23.380;2023-07-08T12:51:48;94657.75;;;25.11;52.07
39301;BME280;25019;42.626;23.380;2023-07-08T12:54:15;94660.44;;;25.32;52.53
39301;BME280;25019;42.626;23.380;2023-07-08T12:56:44;94653.09;;;25.33;51.10
39301;BME280;25019;42.626;23.380;2023-07-08T12:59:14;94633.84;;;24.92;51.43
39301;BME280;25019;42.626;23.380;2023-07-08T13:01:44;94662.69;;;25.18;52.38
39301;BME280;25019;42.626;23.380;2023-07-08T13:04:11;94658.19;;;25.34;52.42
39301;BME280;25019;42.626;23.380;2023-07-08T13:06:39;94653.63;;;25.26;52.43
39301;BME280;25019;42.626;23.380;2023-07-08T13:11:57;94649.94;;;25.43;51.31
39301;BME280;25019;42.626;23.380;2023-07-08T13:14:24;94660.97;;;25.47;51.70
39301;BME280;25019;42.626;23.380;2023-07-08T13:16:50;94652.69;;;25.55;51.50
39301;BME280;25019;42.626;23.380;2023-07-08T13:19:16;94661.44;;;25.73;51.20
39301;BME280;25019;42.626;23.380;2023-07-08T13:21:44;94664.38;;;25.93;49.86
39301;BME280;25019;42.626;23.380;2023-07-08T13:24:10;94639.56;;;25.82;49.51
39301;BME280;25019;42.626;23.380;2023-07-08T13:26:36;94656.56;;;25.92;50.34
39301;BME280;25019;42.626;23.380;2023-07-08T13:29:14;94531.66;;;25.00;50.65
39301;BME280;25019;42.626;23.380;2023-07-08T13:31:46;94645.13;;;25.73;50.62
39301;BME280;25019;42.626;23.380;2023-07-08T13:34:17;94641.38;;;25.78;49.69
39301;BME280;25019;42.626;23.380;2023-07-08T13:36:49;94564.88;;;25.55;49.02
39301;BME280;25019;42.626;23.380;2023-07-08T13:39:28;94651.91;;;25.67;49.83
39301;BME280;25019;42.626;23.380;2023-07-08T13:41:55;94633.31;;;25.57;50.01
39301;BME280;25019;42.626;23.380;2023-07-08T13:44:21;94647.88;;;25.40;50.85
39301;BME280;25019;42.626;23.380;2023-07-08T13:54:47;94661.13;;;24.74;52.61
39301;BME280;25019;42.626;23.380;2023-07-08T13:57:17;94659.94;;;24.84;53.00
39301;BME280;25019;42.626;23.380;2023-07-08T13:59:43;94582.53;;;24.35;53.25
39301;BME280;25019;42.626;23.380;2023-07-08T14:02:23;94651.72;;;25.26;53.14
39301;BME280;25019;42.626;23.380;2023-07-08T14:04:51;94651.09;;;25.54;51.99
39301;BME280;25019;42.626;23.380;2023-07-08T14:07:21;94653.59;;;25.47;51.63
39301;BME280;25019;42.626;23.380;2023-07-08T14:09:47;94651.31;;;25.49;51.45